Time;durP1;ratioP1;P1;durP2;ratioP2;P2;SDS_P1;SDS_P2;PMS_P1;PMS_P2;Temp;Humidity;BMP_temperature;BMP_pressure;BME280_temperature;BME280_humidity;BME280_pressure;Samples;Min_cycle;Max_cycle;Signal;HPM_P1;HPM_P2
2023/12/07 00:00:42;;;;;;;22.60;16.57;;;;;21.70;100815.00;;;;2067914;28;20609;-53
2023/12/07 00:01:42;;;;;;;20.90;16.50;;;;;21.70;100811.00;;;;2068920;28;20660;-53
2023/12/07 00:02:42;;;;;;;21.67;16.30;;;;;21.70;100813.00;;;;2069729;28;20581;-53
2023/12/07 00:03:43;;;;;;;23.10;16.23;;;;;21.70;100819.00;;;;2068294;28;20594;-54
2023/12/07 00:04:43;;;;;;;20.77;16.50;;;;;21.70;100824.00;;;;2059305;28;22426;-50
2023/12/07 00:05:43;;;;;;;17.50;14.40;;;;;21.70;100824.00;;;;2066957;28;20241;-52
2023/12/07 00:06:43;;;;;;;20.27;16.47;;;;;21.70;100823.00;;;;2069632;28;20219;-53
2023/12/07 00:07:44;;;;;;;19.47;16.13;;;;;21.70;100825.00;;;;2069288;28;20206;-53
2023/12/07 00:08:44;;;;;;;20.03;15.57;;;;;21.70;100825.00;;;;2061429;28;20226;-54
2023/12/07 00:09:44;;;;;;;21.90;15.60;;;;;21.70;100829.00;;;;2057319;28;20235;-53
2023/12/07 00:10:45;;;;;;;18.80;15.40;;;;;21.70;100834.00;;;;2067376;28;20217;-54
2023/12/07 00:11:45;;;;;;;17.90;14.70;;;;;21.70;100824.00;;;;2068442;28;20217;-50
2023/12/07 00:12:45;;;;;;;18.73;15.03;;;;;21.70;100835.00;;;;2067924;28;20679;-52
2023/12/07 00:13:46;;;;;;;18.20;14.63;;;;;21.60;100834.00;;;;2069437;28;20693;-53
2023/12/07 00:14:46;;;;;;;19.57;15.03;;;;;21.60;100831.00;;;;2062021;28;20612;-53
2023/12/07 00:15:47;;;;;;;18.10;13.90;;;;;21.60;100834.00;;;;2076266;28;20213;-53
2023/12/07 00:16:48;;;;;;;19.10;14.50;;;;;21.60;100830.00;;;;2074011;28;20218;-51
2023/12/07 00:17:49;;;;;;;18.23;14.40;;;;;21.60;100830.00;;;;2065941;28;21042;-54
2023/12/07 00:18:49;;;;;;;18.60;15.50;;;;;21.60;100825.00;;;;2069175;28;20249;-51
2023/12/07 00:19:50;;;;;;;15.93;13.37;;;;;21.60;100827.00;;;;2058211;28;20316;-53
2023/12/07 00:20:51;;;;;;;18.02;15.15;;;;;21.60;100831.00;;;;2066711;28;20766;-51
2023/12/07 00:21:51;;;;;;;16.90;13.10;;;;;21.60;100829.00;;;;2069400;28;20222;-50
2023/12/07 00:22:51;;;;;;;17.70;14.23;;;;;21.60;100835.00;;;;2068250;28;20214;-52
2023/12/07 00:23:52;;;;;;;17.33;13.60;;;;;20.90;100828.00;;;;2069177;28;20210;-50
2023/12/07 00:24:52;;;;;;;16.37;13.53;;;;;21.60;100830.00;;;;2056683;28;20253;-52
2023/12/07 00:25:53;;;;;;;17.70;13.90;;;;;21.60;100834.00;;;;2069239;28;20701;-52
2023/12/07 00:26:53;;;;;;;16.77;13.73;;;;;21.50;100846.00;;;;2069183;28;20722;-53
2023/12/07 00:27:53;;;;;;;18.10;14.07;;;;;21.60;100833.00;;;;2067441;28;20744;-54
2023/12/07 00:28:54;;;;;;;18.07;13.87;;;;;21.50;100828.00;;;;2069301;28;21147;-54
2023/12/07 00:29:54;;;;;;;17.67;14.13;;;;;21.50;100822.00;;;;2058054;28;20804;-51
2023/12/07 00:30:54;;;;;;;17.13;14.13;;;;;21.50;100828.00;;;;2068689;28;20624;-51
2023/12/07 00:31:55;;;;;;;17.30;13.43;;;;;21.50;100834.00;;;;2065922;28;20225;-53
2023/12/07 00:32:55;;;;;;;20.03;14.33;;;;;21.50;100831.00;;;;2067940;28;20592;-52
2023/12/07 00:33:55;;;;;;;16.87;13.27;;;;;21.50;100833.00;;;;2069270;28;20581;-53
2023/12/07 00:34:56;;;;;;;15.70;12.87;;;;;21.50;100830.00;;;;2058905;28;20198;-53
2023/12/07 00:35:56;;;;;;;15.13;12.50;;;;;21.50;100834.00;;;;2067017;28;20210;-53
2023/12/07 00:36:56;;;;;;;15.40;12.90;;;;;21.50;100827.00;;;;2067706;28;20227;-50
2023/12/07 00:37:57;;;;;;;18.00;13.27;;;;;21.50;100829.00;;;;2067965;28;20585;-52
2023/12/07 00:38:57;;;;;;;17.53;13.80;;;;;21.40;100818.00;;;;2067666;28;20628;-53
2023/12/07 00:39:57;;;;;;;17.97;13.40;;;;;21.50;100826.00;;;;2058956;28;20214;-53
2023/12/07 00:40:58;;;;;;;14.17;12.50;;;;;21.50;100816.00;;;;2069321;28;20933;-53
2023/12/07 00:41:58;;;;;;;16.70;12.90;;;;;21.50;100813.00;;;;2066483;28;20619;-52
2023/12/07 00:42:58;;;;;;;15.43;12.57;;;;;21.50;100808.00;;;;2066907;28;20600;-53
2023/12/07 00:43:59;;;;;;;15.10;12.77;;;;;21.40;100819.00;;;;2067831;28;20574;-50
2023/12/07 00:45:00;;;;;;;16.60;14.00;;;;;21.50;100821.00;;;;2059312;28;20336;-52
2023/12/07 00:46:02;;;;;;;17.80;13.88;;;;;21.40;100811.00;;;;2057509;28;20215;-53
2023/12/07 00:47:02;;;;;;;16.35;12.63;;;;;21.50;100811.00;;;;2059079;28;20223;-54
2023/12/07 00:48:03;;;;;;;17.10;14.10;;;;;21.40;100810.00;;;;2067911;28;20660;-53
2023/12/07 00:49:03;;;;;;;15.47;12.50;;;;;21.40;100814.00;;;;2067058;28;20215;-53
2023/12/07 00:50:04;;;;;;;16.33;13.03;;;;;21.40;100822.00;;;;2060594;28;20224;-51
2023/12/07 00:51:06;;;;;;;17.67;13.50;;;;;21.40;100807.00;;;;2069998;28;20218;-53
2023/12/07 00:52:06;;;;;;;16.95;13.52;;;;;21.40;100815.00;;;;2061898;28;20219;-53
2023/12/07 00:53:07;;;;;;;16.27;12.83;;;;;21.40;100817.00;;;;2070813;28;20217;-52
2023/12/07 00:54:07;;;;;;;16.47;12.93;;;;;21.40;100822.00;;;;2069153;28;20214;-51
2023/12/07 00:55:08;;;;;;;16.03;13.20;;;;;21.40;100818.00;;;;2060259;28;20206;-51
2023/12/07 00:56:08;;;;;;;16.80;13.23;;;;;21.40;100826.00;;;;2069685;28;20222;-53
2023/12/07 00:57:08;;;;;;;15.90;12.73;;;;;21.40;100824.00;;;;2070571;28;20240;-56
2023/12/07 00:58:09;;;;;;;15.13;12.47;;;;;21.40;100817.00;;;;2068634;28;20291;-54
2023/12/07 00:59:09;;;;;;;17.23;12.87;;;;;21.40;100825.00;;;;2070547;28;20214;-54
2023/12/07 01:00:10;;;;;;;16.20;13.10;;;;;21.40;100821.00;;;;2061145;28;20218;-52
2023/12/07 01:01:10;;;;;;;16.40;13.60;;;;;21.40;100821.00;;;;2069230;28;20240;-51
2023/12/07 01:02:11;;;;;;;18.57;14.60;;;;;21.40;100835.00;;;;2064241;28;20465;-52
2023/12/07 01:03:11;;;;;;;15.27;12.80;;;;;21.40;100828.00;;;;2065108;28;20242;-50
2023/12/07 01:04:11;;;;;;;18.10;12.60;;;;;21.40;100733.00;;;;2063624;28;20222;-52
2023/12/07 01:05:12;;;;;;;17.60;13.63;;;;;20.90;100824.00;;;;2060557;28;20422;-50
2023/12/07 01:06:12;;;;;;;15.10;12.60;;;;;21.30;100822.00;;;;2070104;28;20214;-51
2023/12/07 01:07:13;;;;;;;16.03;13.20;;;;;21.30;100824.00;;;;2070345;28;20226;-52
2023/12/07 01:08:13;;;;;;;15.90;13.37;;;;;21.30;100821.00;;;;2067216;28;20581;-52
2023/12/07 01:09:13;;;;;;;15.37;12.43;;;;;21.30;100824.00;;;;2070686;28;20610;-53
2023/12/07 01:10:14;;;;;;;14.13;12.20;;;;;21.30;100818.00;;;;2060024;28;20617;-53
2023/12/07 01:11:14;;;;;;;16.50;12.80;;;;;21.30;100829.00;;;;2068733;28;20584;-53
2023/12/07 01:12:14;;;;;;;15.93;12.73;;;;;21.30;100827.00;;;;2070396;28;20214;-50
2023/12/07 01:13:14;;;;;;;16.70;12.40;;;;;21.30;100831.00;;;;2070061;28;20225;-50
2023/12/07 01:14:15;;;;;;;15.47;12.73;;;;;21.30;100822.00;;;;2070217;28;20238;-52
2023/12/07 01:15:15;;;;;;;15.27;11.87;;;;;21.30;100829.00;;;;2059718;28;20218;-51
2023/12/07 01:16:15;;;;;;;12.70;11.33;;;;;21.30;100829.00;;;;2070375;28;20215;-53
2023/12/07 01:17:16;;;;;;;16.63;12.53;;;;;21.30;100829.00;;;;2069724;28;20225;-53
2023/12/07 01:18:16;;;;;;;14.97;12.70;;;;;21.30;100829.00;;;;2069052;28;20222;-52
2023/12/07 01:19:17;;;;;;;14.77;12.40;;;;;21.30;100695.00;;;;2058988;28;20706;-50
2023/12/07 01:20:17;;;;;;;15.60;12.77;;;;;21.30;100830.00;;;;2045757;28;20697;-51
2023/12/07 01:21:17;;;;;;;14.70;12.13;;;;;21.30;100830.00;;;;2061388;28;20234;-52
2023/12/07 01:22:18;;;;;;;14.47;12.60;;;;;21.30;100838.00;;;;2069440;28;20234;-53
2023/12/07 01:23:18;;;;;;;13.27;11.57;;;;;21.30;100839.00;;;;2070530;28;20230;-53
2023/12/07 01:24:18;;;;;;;17.40;12.83;;;;;21.30;100836.00;;;;2069590;28;20228;-53
2023/12/07 01:25:21;;;;;;;15.37;12.80;;;;;21.30;100836.00;;;;2059531;28;20234;-52
2023/12/07 01:26:21;;;;;;;13.80;11.88;;;;;21.30;100838.00;;;;2070298;28;20218;-51
2023/12/07 01:27:22;;;;;;;15.47;11.63;;;;;21.20;100839.00;;;;2068696;28;20242;-54
2023/12/07 01:28:22;;;;;;;15.37;12.13;;;;;21.30;100844.00;;;;2069093;28;20214;-53
2023/12/07 01:29:23;;;;;;;14.77;11.63;;;;;21.20;100844.00;;;;2068357;28;20461;-53
2023/12/07 01:30:23;;;;;;;14.47;11.77;;;;;21.20;100830.00;;;;2060535;28;20690;-49
2023/12/07 01:31:23;;;;;;;14.30;11.67;;;;;21.20;100847.00;;;;2069114;28;20210;-52
2023/12/07 01:32:24;;;;;;;13.87;11.33;;;;;21.20;100846.00;;;;2070388;28;20241;-52
2023/12/07 01:33:25;;;;;;;14.20;12.00;;;;;21.20;100848.00;;;;2070374;28;20211;-53
2023/12/07 01:34:25;;;;;;;14.97;11.50;;;;;21.20;100847.00;;;;2060989;28;20206;-55
2023/12/07 01:35:25;;;;;;;13.50;11.27;;;;;21.20;100852.00;;;;2068469;28;20230;-53
2023/12/07 01:36:26;;;;;;;16.43;11.80;;;;;21.20;100852.00;;;;2069420;28;20217;-51
2023/12/07 01:37:27;;;;;;;13.23;11.57;;;;;21.20;100856.00;;;;2070354;28;20210;-53
2023/12/07 01:38:27;;;;;;;13.85;10.68;;;;;21.20;100850.00;;;;2068382;28;20206;-52
2023/12/07 01:39:28;;;;;;;17.20;11.33;;;;;21.20;100857.00;;;;2057780;28;20249;-51
2023/12/07 01:40:28;;;;;;;13.03;10.83;;;;;21.20;100852.00;;;;2069932;28;20218;-51
2023/12/07 01:41:29;;;;;;;15.43;12.50;;;;;21.20;100837.00;;;;2069603;28;20217;-54
2023/12/07 01:42:30;;;;;;;13.57;11.70;;;;;21.20;100864.00;;;;2070553;28;20903;-52
2023/12/07 01:43:30;;;;;;;14.70;11.90;;;;;20.50;100837.00;;;;2067127;28;20361;-51
2023/12/07 01:44:30;;;;;;;13.80;11.70;;;;;21.20;100836.00;;;;2058944;28;20210;-51
2023/12/07 01:45:30;;;;;;;14.00;11.27;;;;;21.10;100838.00;;;;2074763;28;20217;-51
2023/12/07 01:46:32;;;;;;;13.10;11.30;;;;;21.10;100855.00;;;;2064201;28;20886;-52
2023/12/07 01:47:32;;;;;;;13.45;11.23;;;;;21.10;100835.00;;;;2069655;28;20214;-53
2023/12/07 01:48:32;;;;;;;15.63;11.30;;;;;21.10;100836.00;;;;2066865;28;21344;-51
2023/12/07 01:49:33;;;;;;;14.17;11.37;;;;;21.10;100839.00;;;;2059521;28;20218;-53
2023/12/07 01:50:34;;;;;;;15.80;11.57;;;;;21.10;100830.00;;;;2069198;28;20592;-53
2023/12/07 01:51:34;;;;;;;13.67;11.30;;;;;21.10;100844.00;;;;2060119;28;21010;-53
2023/12/07 01:52:36;;;;;;;14.03;10.80;;;;;21.10;100844.00;;;;2053142;28;20223;-51
2023/12/07 01:53:38;;;;;;;13.95;11.35;;;;;21.10;100834.00;;;;2067260;28;20221;-50
2023/12/07 01:54:39;;;;;;;12.88;11.55;;;;;21.10;100839.00;;;;2059373;28;20507;-51
2023/12/07 01:55:39;;;;;;;13.40;11.40;;;;;21.10;100847.00;;;;2068300;28;20245;-51
2023/12/07 01:56:40;;;;;;;14.27;11.50;;;;;21.10;100844.00;;;;2069421;28;20291;-52
2023/12/07 01:57:41;;;;;;;13.47;11.47;;;;;21.10;100844.00;;;;2068341;28;20226;-51
2023/12/07 01:58:42;;;;;;;13.50;11.32;;;;;21.10;100845.00;;;;2068198;28;20222;-53
2023/12/07 01:59:42;;;;;;;14.33;12.20;;;;;21.10;100839.00;;;;2051462;28;20223;-54
2023/12/07 02:00:43;;;;;;;12.70;11.13;;;;;21.10;100844.00;;;;2068854;28;20449;-53
2023/12/07 02:01:43;;;;;;;14.20;12.50;;;;;21.10;100855.00;;;;2069886;28;20264;-49
2023/12/07 02:02:44;;;;;;;13.47;11.03;;;;;21.10;100855.00;;;;2068319;28;20222;-51
2023/12/07 02:03:45;;;;;;;15.45;11.75;;;;;21.10;100924.00;;;;2069279;28;20252;-54
2023/12/07 02:04:45;;;;;;;15.93;10.90;;;;;21.10;100855.00;;;;2059538;28;20718;-50
2023/12/07 02:05:48;;;;;;;16.70;12.10;;;;;21.10;100838.00;;;;2068858;28;20696;-52
2023/12/07 02:06:49;;;;;;;14.02;11.32;;;;;21.00;100844.00;;;;2070054;28;20222;-54
2023/12/07 02:07:49;;;;;;;15.67;12.33;;;;;21.00;100877.00;;;;2057812;28;20237;-50
2023/12/07 02:08:50;;;;;;;13.37;11.77;;;;;21.10;100844.00;;;;2061415;28;20713;-52
2023/12/07 02:09:50;;;;;;;15.00;12.30;;;;;21.10;100845.00;;;;2058716;28;20280;-53
2023/12/07 02:10:52;;;;;;;14.57;12.43;;;;;21.10;100855.00;;;;2061319;28;20214;-50
2023/12/07 02:11:52;;;;;;;13.10;11.23;;;;;21.10;100855.00;;;;2060463;28;20218;-52
2023/12/07 02:12:53;;;;;;;13.33;11.23;;;;;21.00;100818.00;;;;2069159;28;20218;-53
2023/12/07 02:13:55;;;;;;;14.53;12.87;;;;;21.00;100852.00;;;;2069578;28;20246;-53
2023/12/07 02:14:56;;;;;;;14.40;11.07;;;;;21.00;100859.00;;;;2050682;28;20730;-53
2023/12/07 02:15:56;;;;;;;13.60;11.47;;;;;21.00;100865.00;;;;2061552;28;20222;-53
2023/12/07 02:17:18;;;;;;;15.67;11.43;;;;;21.00;100861.00;;;;2068938;28;20241;-53
2023/12/07 02:18:30;;;;;;;13.05;11.02;;;;;21.00;100861.00;;;;2058147;28;20234;-53
2023/12/07 02:19:55;;;;;;;14.85;11.60;;;;;21.00;100861.00;;;;2059139;28;20690;-52
2023/12/07 02:21:04;;;;;;;15.65;13.05;;;;;21.00;100857.00;;;;2068856;28;20241;-53
2023/12/07 02:22:09;;;;;;;13.20;11.07;;;;;21.00;100868.00;;;;2066367;28;20284;-51
2023/12/07 02:23:10;;;;;;;14.00;11.95;;;;;21.00;100862.00;;;;2069334;28;20829;-53
2023/12/07 02:24:11;;;;;;;13.03;11.07;;;;;21.00;100856.00;;;;2060430;28;20222;-51
2023/12/07 02:25:11;;;;;;;18.00;11.90;;;;;21.00;100860.00;;;;2050864;28;20223;-52
2023/12/07 02:26:11;;;;;;;13.33;11.67;;;;;21.00;100866.00;;;;2059423;28;20227;-53
2023/12/07 02:27:12;;;;;;;13.33;10.97;;;;;21.00;100862.00;;;;2051960;28;20231;-53
2023/12/07 02:28:12;;;;;;;13.47;11.20;;;;;21.00;100866.00;;;;2067965;28;20279;-51
2023/12/07 02:29:12;;;;;;;14.43;11.40;;;;;21.00;100885.00;;;;2068893;28;20222;-50
2023/12/07 02:30:13;;;;;;;13.10;10.77;;;;;21.00;100869.00;;;;2059614;28;20699;-52
2023/12/07 02:31:13;;;;;;;14.60;12.10;;;;;21.00;100871.00;;;;2069036;28;20702;-51
2023/12/07 02:32:13;;;;;;;13.27;11.00;;;;;21.00;100879.00;;;;2070339;28;20249;-51
2023/12/07 02:33:15;;;;;;;12.60;11.07;;;;;21.00;100879.00;;;;2069505;28;20218;-50
2023/12/07 02:34:16;;;;;;;13.20;10.90;;;;;21.00;100873.00;;;;2066759;28;20218;-52
2023/12/07 02:35:16;;;;;;;16.20;11.50;;;;;21.00;100880.00;;;;2059102;28;20212;-53
2023/12/07 02:36:17;;;;;;;13.23;11.40;;;;;21.00;100874.00;;;;2066549;28;20222;-53
2023/12/07 02:37:18;;;;;;;12.57;10.80;;;;;21.00;100889.00;;;;2068276;28;20210;-52
2023/12/07 02:38:18;;;;;;;12.00;10.70;;;;;20.90;100876.00;;;;2062610;28;20219;-52
2023/12/07 02:39:19;;;;;;;13.53;11.10;;;;;21.00;100880.00;;;;2059835;28;20537;-50
2023/12/07 02:40:24;;;;;;;14.10;12.00;;;;;20.90;100878.00;;;;2050654;28;20215;-50
2023/12/07 02:41:25;;;;;;;13.82;11.75;;;;;21.00;100935.00;;;;2068118;28;20215;-51
2023/12/07 02:42:25;;;;;;;15.33;12.30;;;;;20.90;100879.00;;;;2063271;28;20687;-51
2023/12/07 02:43:26;;;;;;;13.00;11.70;;;;;20.90;100881.00;;;;2069224;28;20722;-53
2023/12/07 02:44:26;;;;;;;13.97;11.20;;;;;20.90;100882.00;;;;2058858;28;20203;-54
2023/12/07 02:45:26;;;;;;;13.97;11.20;;;;;20.90;100882.00;;;;2068484;28;20314;-52
2023/12/07 02:46:27;;;;;;;13.10;11.50;;;;;20.90;100875.00;;;;2069001;28;20215;-53
2023/12/07 02:47:27;;;;;;;14.80;11.50;;;;;20.90;100876.00;;;;2069467;28;20298;-53
2023/12/07 02:48:29;;;;;;;13.27;11.03;;;;;20.90;100874.00;;;;2066815;28;20210;-51
2023/12/07 02:49:29;;;;;;;13.65;11.00;;;;;20.90;100887.00;;;;2054918;28;20229;-50
2023/12/07 02:50:30;;;;;;;14.63;12.10;;;;;20.90;100880.00;;;;2064211;28;20234;-51
2023/12/07 02:51:30;;;;;;;13.20;11.23;;;;;20.90;100908.00;;;;2067295;28;20228;-52
2023/12/07 02:52:30;;;;;;;13.17;11.07;;;;;20.90;100903.00;;;;2069579;28;20309;-51
2023/12/07 02:53:31;;;;;;;14.07;11.80;;;;;20.90;100878.00;;;;2066388;28;20707;-53
2023/12/07 02:54:31;;;;;;;12.53;11.00;;;;;20.90;100881.00;;;;2057806;28;20853;-52
2023/12/07 02:55:32;;;;;;;12.70;10.80;;;;;20.90;100877.00;;;;2068204;28;20210;-50
2023/12/07 02:56:32;;;;;;;13.33;11.80;;;;;20.80;100872.00;;;;2068595;28;20741;-50
2023/12/07 02:57:33;;;;;;;14.20;11.10;;;;;20.90;100871.00;;;;2067906;28;20218;-53
2023/12/07 02:58:33;;;;;;;14.35;11.48;;;;;20.90;100871.00;;;;2067763;28;20249;-53
2023/12/07 02:59:34;;;;;;;14.20;11.80;;;;;20.90;100862.00;;;;2059050;28;20226;-50
2023/12/07 03:00:34;;;;;;;14.10;10.63;;;;;20.90;100873.00;;;;2068805;28;20222;-52
2023/12/07 03:01:34;;;;;;;12.43;10.80;;;;;20.90;100868.00;;;;2068538;28;20728;-53
2023/12/07 03:02:35;;;;;;;14.33;11.63;;;;;20.80;100872.00;;;;2068715;28;20686;-53
2023/12/07 03:03:38;;;;;;;14.53;11.87;;;;;20.90;100882.00;;;;2068353;28;20793;-53
2023/12/07 03:04:38;;;;;;;12.98;11.55;;;;;20.80;100864.00;;;;2059274;28;20226;-50
2023/12/07 03:05:39;;;;;;;12.07;10.23;;;;;20.90;100857.00;;;;2069684;28;20238;-51
2023/12/07 03:06:39;;;;;;;12.80;11.37;;;;;20.90;100864.00;;;;2066161;28;20684;-52
2023/12/07 03:07:39;;;;;;;15.90;11.60;;;;;20.80;100868.00;;;;2066785;28;20218;-53
2023/12/07 03:08:40;;;;;;;12.27;10.37;;;;;20.90;100861.00;;;;2067607;28;20218;-51
2023/12/07 03:09:40;;;;;;;14.50;11.07;;;;;20.90;100865.00;;;;2054054;28;20311;-53
2023/12/07 03:10:40;;;;;;;13.80;11.70;;;;;20.80;100911.00;;;;2069231;28;20233;-53
2023/12/07 03:11:41;;;;;;;13.03;11.17;;;;;20.80;100856.00;;;;2068885;28;20226;-50
2023/12/07 03:12:41;;;;;;;14.40;10.87;;;;;20.80;100860.00;;;;2064500;28;20756;-51
2023/12/07 03:13:41;;;;;;;14.63;11.57;;;;;20.80;100856.00;;;;2069595;28;20673;-53
2023/12/07 03:14:42;;;;;;;12.33;10.60;;;;;20.80;100863.00;;;;2056003;28;20726;-53
2023/12/07 03:15:42;;;;;;;11.93;10.13;;;;;20.80;100864.00;;;;2069201;28;20252;-53
2023/12/07 03:16:42;;;;;;;14.10;12.00;;;;;20.80;100856.00;;;;2068790;28;20218;-53
2023/12/07 03:17:43;;;;;;;14.20;11.57;;;;;20.80;100858.00;;;;2065875;28;20210;-50
2023/12/07 03:18:44;;;;;;;13.47;11.40;;;;;20.80;100857.00;;;;2067249;28;20373;-52
2023/12/07 03:19:44;;;;;;;13.90;11.63;;;;;20.80;100857.00;;;;2058154;28;20243;-53
2023/12/07 03:20:44;;;;;;;13.27;10.00;;;;;20.80;100860.00;;;;2069095;28;20222;-53
2023/12/07 03:21:45;;;;;;;13.80;11.30;;;;;20.80;100856.00;;;;2067582;28;20233;-53
2023/12/07 03:22:45;;;;;;;13.30;11.20;;;;;20.80;100853.00;;;;2067077;28;20226;-53
2023/12/07 03:23:45;;;;;;;13.43;12.03;;;;;20.80;100853.00;;;;2068744;28;20701;-50
2023/12/07 03:24:47;;;;;;;14.07;11.30;;;;;20.80;100852.00;;;;2059479;28;20245;-52
2023/12/07 03:25:47;;;;;;;12.27;10.52;;;;;20.80;100857.00;;;;2069586;28;20218;-51
2023/12/07 03:26:48;;;;;;;12.80;11.33;;;;;20.80;100853.00;;;;2069127;28;20678;-53
2023/12/07 03:27:48;;;;;;;12.60;11.20;;;;;20.80;100850.00;;;;2068296;28;20245;-53
2023/12/07 03:28:48;;;;;;;14.13;11.63;;;;;20.80;100854.00;;;;2067832;28;20483;-54
2023/12/07 03:29:49;;;;;;;13.00;11.40;;;;;20.80;100861.00;;;;2059105;28;20869;-54
2023/12/07 03:30:49;;;;;;;12.33;10.63;;;;;20.80;100855.00;;;;2069134;28;20300;-50
2023/12/07 03:31:49;;;;;;;12.60;11.27;;;;;20.80;100857.00;;;;2068723;28;20478;-52
2023/12/07 03:32:50;;;;;;;12.07;10.17;;;;;20.80;100854.00;;;;2062055;28;20269;-50
2023/12/07 03:33:50;;;;;;;13.73;10.97;;;;;20.70;100864.00;;;;2068786;28;20210;-51
2023/12/07 03:34:50;;;;;;;12.47;10.33;;;;;20.70;100858.00;;;;2059559;28;20226;-53
2023/12/07 03:35:51;;;;;;;13.10;10.50;;;;;20.70;100856.00;;;;2067951;28;20209;-53
2023/12/07 03:36:51;;;;;;;13.27;10.70;;;;;20.70;100861.00;;;;2069132;28;20268;-52
2023/12/07 03:37:52;;;;;;;13.83;11.27;;;;;20.70;100903.00;;;;2061399;28;20218;-54
2023/12/07 03:38:52;;;;;;;12.73;10.67;;;;;20.70;100854.00;;;;2068583;28;20565;-51
2023/12/07 03:39:53;;;;;;;12.97;11.07;;;;;20.70;100858.00;;;;2057388;28;20308;-52
2023/12/07 03:40:53;;;;;;;12.00;10.20;;;;;20.70;100860.00;;;;2067191;28;20225;-53
2023/12/07 03:41:53;;;;;;;13.00;11.60;;;;;20.70;100865.00;;;;2064212;28;20234;-55
2023/12/07 03:42:54;;;;;;;13.97;11.60;;;;;20.70;100858.00;;;;2068377;28;20275;-56
2023/12/07 03:43:54;;;;;;;14.03;10.67;;;;;20.70;100860.00;;;;2069124;28;20214;-53
2023/12/07 03:44:54;;;;;;;12.13;10.67;;;;;20.70;100862.00;;;;2058889;28;20265;-50
2023/12/07 03:45:55;;;;;;;11.80;10.53;;;;;20.70;100863.00;;;;2068755;28;20213;-51
2023/12/07 03:46:55;;;;;;;14.67;11.73;;;;;20.70;100858.00;;;;2069220;28;20977;-52
2023/12/07 03:47:55;;;;;;;11.80;10.37;;;;;20.70;100863.00;;;;2064472;28;20297;-53
2023/12/07 03:48:56;;;;;;;13.57;10.40;;;;;20.70;100857.00;;;;2069266;28;20458;-53
2023/12/07 03:49:56;;;;;;;12.40;10.80;;;;;20.70;100861.00;;;;2058836;28;20252;-53
2023/12/07 03:50:56;;;;;;;12.63;10.70;;;;;20.70;100859.00;;;;2069184;28;20214;-54
2023/12/07 03:51:57;;;;;;;12.97;10.53;;;;;20.70;100859.00;;;;2069180;28;20214;-51
2023/12/07 03:52:57;;;;;;;11.57;10.00;;;;;20.70;100859.00;;;;2068484;28;20241;-52
2023/12/07 03:53:57;;;;;;;12.30;10.90;;;;;20.70;100855.00;;;;2069349;28;20217;-53
2023/12/07 03:54:58;;;;;;;11.90;10.23;;;;;20.70;100858.00;;;;2058999;28;20224;-53
2023/12/07 03:55:59;;;;;;;13.27;10.30;;;;;20.60;100861.00;;;;2066851;28;20226;-53
2023/12/07 03:56:59;;;;;;;13.97;11.30;;;;;20.70;100860.00;;;;2068133;28;20218;-50
2023/12/07 03:57:59;;;;;;;12.73;11.23;;;;;20.70;100863.00;;;;2067443;28;20388;-50
2023/12/07 03:59:00;;;;;;;12.70;10.60;;;;;20.60;100867.00;;;;2069063;28;20261;-53
2023/12/07 04:00:00;;;;;;;12.93;10.47;;;;;20.60;100865.00;;;;2058694;28;20229;-53
2023/12/07 04:01:00;;;;;;;10.57;9.20;;;;;20.70;100868.00;;;;2069038;28;20225;-53
2023/12/07 04:02:01;;;;;;;13.70;11.20;;;;;20.60;100872.00;;;;2068409;28;20276;-50
2023/12/07 04:03:01;;;;;;;13.83;10.93;;;;;20.60;100863.00;;;;2069280;28;20713;-51
2023/12/07 04:04:02;;;;;;;12.53;10.50;;;;;20.60;100868.00;;;;2069080;28;20585;-51
2023/12/07 04:05:02;;;;;;;12.23;10.53;;;;;20.60;100876.00;;;;2058475;28;20233;-53
2023/12/07 04:06:03;;;;;;;11.77;10.07;;;;;20.60;100885.00;;;;2069202;28;20945;-53
2023/12/07 04:07:03;;;;;;;13.87;11.77;;;;;20.10;100883.00;;;;2067659;28;20253;-53
2023/12/07 04:08:06;;;;;;;11.83;10.30;;;;;20.60;100877.00;;;;2067538;28;20221;-50
2023/12/07 04:09:07;;;;;;;11.10;9.93;;;;;20.60;100875.00;;;;2068227;28;20373;-53
2023/12/07 04:10:08;;;;;;;12.03;10.73;;;;;20.60;100879.00;;;;2058774;28;20218;-53
2023/12/07 04:11:08;;;;;;;14.00;9.73;;;;;20.60;100877.00;;;;2068595;28;20237;-53
2023/12/07 04:12:08;;;;;;;12.27;10.87;;;;;20.60;100880.00;;;;2068409;28;20230;-54
2023/12/07 04:13:09;;;;;;;12.47;10.30;;;;;20.60;100878.00;;;;2069177;28;20222;-53
2023/12/07 04:14:09;;;;;;;12.30;9.83;;;;;20.60;100878.00;;;;2066627;28;20221;-51
2023/12/07 04:15:10;;;;;;;12.40;9.50;;;;;20.60;100876.00;;;;2059001;28;20245;-53
2023/12/07 04:16:10;;;;;;;11.83;9.60;;;;;20.60;100846.00;;;;2068681;28;20237;-50
2023/12/07 04:17:10;;;;;;;12.53;10.40;;;;;20.60;100907.00;;;;2067743;28;20230;-52
2023/12/07 04:18:11;;;;;;;12.83;10.57;;;;;20.60;100876.00;;;;2067148;28;20641;-51
2023/12/07 04:19:11;;;;;;;11.87;9.90;;;;;20.60;100878.00;;;;2068336;28;20579;-53
2023/12/07 04:20:12;;;;;;;13.63;10.67;;;;;20.60;100875.00;;;;2063438;28;20233;-52
2023/12/07 04:21:13;;;;;;;11.70;10.32;;;;;20.60;100874.00;;;;2074543;28;20233;-52
2023/12/07 04:22:13;;;;;;;17.10;11.77;;;;;20.60;100870.00;;;;2070516;28;20722;-52
2023/12/07 04:23:14;;;;;;;12.50;9.80;;;;;20.60;100870.00;;;;2068875;28;21028;-53
2023/12/07 04:24:14;;;;;;;13.60;10.03;;;;;20.60;100887.00;;;;2067840;28;20571;-50
2023/12/07 04:25:15;;;;;;;12.27;9.47;;;;;20.60;100878.00;;;;2059082;28;20761;-52
2023/12/07 04:26:15;;;;;;;11.43;10.23;;;;;20.60;100877.00;;;;2068397;28;21338;-50
2023/12/07 04:27:15;;;;;;;11.40;9.50;;;;;20.60;100883.00;;;;2066961;28;20309;-53
2023/12/07 04:28:16;;;;;;;11.47;9.60;;;;;20.60;100882.00;;;;2066360;28;20229;-53
2023/12/07 04:29:16;;;;;;;11.53;9.93;;;;;20.60;100881.00;;;;2068608;28;20279;-54
2023/12/07 04:30:16;;;;;;;13.73;10.00;;;;;20.60;100882.00;;;;2062721;28;20300;-54
2023/12/07 04:31:17;;;;;;;11.10;9.30;;;;;20.60;100879.00;;;;2070489;28;20226;-50
2023/12/07 04:32:17;;;;;;;11.50;9.70;;;;;20.60;100879.00;;;;2069283;28;20755;-50
2023/12/07 04:33:17;;;;;;;11.37;9.93;;;;;20.60;100881.00;;;;2068061;28;21018;-51
2023/12/07 04:34:18;;;;;;;11.93;9.90;;;;;20.50;100883.00;;;;2068868;28;20744;-53
2023/12/07 04:35:18;;;;;;;11.20;9.47;;;;;20.60;100882.00;;;;2059097;28;20214;-53
2023/12/07 04:36:18;;;;;;;11.33;9.43;;;;;20.60;100885.00;;;;2068445;28;20609;-53
2023/12/07 04:37:19;;;;;;;13.17;10.33;;;;;20.60;100883.00;;;;2068982;28;20210;-53
2023/12/07 04:38:19;;;;;;;11.40;9.33;;;;;20.50;100888.00;;;;2065730;28;20221;-50
2023/12/07 04:39:19;;;;;;;10.80;9.00;;;;;20.60;100875.00;;;;2066815;28;20206;-52
2023/12/07 04:40:20;;;;;;;12.47;9.90;;;;;20.50;100888.00;;;;2061510;28;20205;-53
2023/12/07 04:41:20;;;;;;;10.73;8.70;;;;;20.60;100888.00;;;;2076011;28;20429;-53
2023/12/07 04:42:20;;;;;;;12.73;10.00;;;;;20.50;100889.00;;;;2069414;28;20222;-50
2023/12/07 04:43:21;;;;;;;11.80;9.40;;;;;20.50;100890.00;;;;2068491;28;20223;-53
2023/12/07 04:44:21;;;;;;;12.83;10.30;;;;;20.60;100893.00;;;;2068870;28;20272;-53
2023/12/07 04:45:22;;;;;;;11.10;9.90;;;;;20.50;100885.00;;;;2065030;28;20225;-51
2023/12/07 04:46:22;;;;;;;12.80;10.50;;;;;20.50;100893.00;;;;2074753;28;20214;-52
2023/12/07 04:47:23;;;;;;;11.30;9.43;;;;;20.50;100894.00;;;;2060243;28;20215;-54
2023/12/07 04:48:23;;;;;;;12.13;9.00;;;;;20.50;100892.00;;;;2049982;28;21050;-53
2023/12/07 04:49:24;;;;;;;11.20;9.73;;;;;20.50;100892.00;;;;2066086;28;20225;-50
2023/12/07 04:50:24;;;;;;;10.23;9.13;;;;;20.50;100889.00;;;;2064122;28;20293;-51
2023/12/07 04:51:24;;;;;;;11.80;9.20;;;;;20.50;100894.00;;;;2074197;28;20213;-53
2023/12/07 04:52:25;;;;;;;10.50;9.17;;;;;20.50;100895.00;;;;2065855;28;20579;-52
2023/12/07 04:53:25;;;;;;;11.10;9.53;;;;;20.50;100900.00;;;;2066481;28;20801;-53